sensor_id;sensor_type;location;lat;lon;timestamp;temperature;humidity
50418;DHT22;36346;48.280;14.292;2022-07-06T00:01:06;20.30;99.90
50418;DHT22;36346;48.280;14.292;2022-07-06T00:03:35;20.30;99.90
50418;DHT22;36346;48.280;14.292;2022-07-06T00:06:03;20.30;99.90
50418;DHT22;36346;48.280;14.292;2022-07-06T00:08:31;20.20;99.90
50418;DHT22;36346;48.280;14.292;2022-07-06T00:10:59;20.20;99.90
50418;DHT22;36346;48.280;14.292;2022-07-06T00:13:28;20.10;99.90
50418;DHT22;36346;48.280;14.292;2022-07-06T00:15:56;20.10;99.90
50418;DHT22;36346;48.280;14.292;2022-07-06T00:18:24;20.10;99.90
50418;DHT22;36346;48.280;14.292;2022-07-06T00:20:53;20.00;99.90
50418;DHT22;36346;48.280;14.292;2022-07-06T00:23:22;20.10;99.90
50418;DHT22;36346;48.280;14.292;2022-07-06T00:25:50;20.10;99.90
50418;DHT22;36346;48.280;14.292;2022-07-06T00:28:18;20.00;99.90
50418;DHT22;36346;48.280;14.292;2022-07-06T00:30:46;20.10;99.90
50418;DHT22;36346;48.280;14.292;2022-07-06T00:33:15;20.10;99.90
50418;DHT22;36346;48.280;14.292;2022-07-06T00:35:43;19.90;99.90
50418;DHT22;36346;48.280;14.292;2022-07-06T00:38:11;20.00;99.90
50418;DHT22;36346;48.280;14.292;2022-07-06T00:40:40;19.90;99.90
50418;DHT22;36346;48.280;14.292;2022-07-06T00:43:09;19.40;99.90
50418;DHT22;36346;48.280;14.292;2022-07-06T00:45:37;20.00;99.90
50418;DHT22;36346;48.280;14.292;2022-07-06T00:48:06;19.90;99.90
50418;DHT22;36346;48.280;14.292;2022-07-06T00:50:35;19.90;99.90
50418;DHT22;36346;48.280;14.292;2022-07-06T00:53:05;19.80;99.90
50418;DHT22;36346;48.280;14.292;2022-07-06T00:55:35;19.70;99.90
50418;DHT22;36346;48.280;14.292;2022-07-06T00:58:08;19.80;99.90
50418;DHT22;36346;48.280;14.292;2022-07-06T01:00:37;19.80;99.90
50418;DHT22;36346;48.280;14.292;2022-07-06T01:03:06;19.70;99.90
50418;DHT22;36346;48.280;14.292;2022-07-06T01:05:34;19.70;99.90
50418;DHT22;36346;48.280;14.292;2022-07-06T01:08:02;19.70;99.90
50418;DHT22;36346;48.280;14.292;2022-07-06T01:10:31;19.70;99.90
50418;DHT22;36346;48.280;14.292;2022-07-06T01:12:59;19.80;99.90
50418;DHT22;36346;48.280;14.292;2022-07-06T01:15:28;19.80;99.90
50418;DHT22;36346;48.280;14.292;2022-07-06T01:17:57;19.80;99.90
50418;DHT22;36346;48.280;14.292;2022-07-06T01:20:31;19.70;99.90
50418;DHT22;36346;48.280;14.292;2022-07-06T01:23:00;19.50;99.90
50418;DHT22;36346;48.280;14.292;2022-07-06T01:25:28;19.50;99.90
50418;DHT22;36346;48.280;14.292;2022-07-06T01:27:56;19.40;99.90
50418;DHT22;36346;48.280;14.292;2022-07-06T01:30:25;19.40;99.90
50418;DHT22;36346;48.280;14.292;2022-07-06T01:32:53;19.40;99.90
50418;DHT22;36346;48.280;14.292;2022-07-06T01:35:23;19.40;99.90
50418;DHT22;36346;48.280;14.292;2022-07-06T01:37:52;19.40;99.90
50418;DHT22;36346;48.280;14.292;2022-07-06T01:40:20;19.40;99.90
50418;DHT22;36346;48.280;14.292;2022-07-06T01:42:48;19.40;99.90
50418;DHT22;36346;48.280;14.292;2022-07-06T01:45:16;19.40;99.90
50418;DHT22;36346;48.280;14.292;2022-07-06T01:47:44;19.40;99.90
50418;DHT22;36346;48.280;14.292;2022-07-06T01:50:12;19.40;99.90
50418;DHT22;36346;48.280;14.292;2022-07-06T01:52:44;19.30;99.90
50418;DHT22;36346;48.280;14.292;2022-07-06T01:55:13;19.40;99.90
50418;DHT22;36346;48.280;14.292;2022-07-06T01:57:41;19.50;99.90
50418;DHT22;36346;48.280;14.292;2022-07-06T02:00:11;19.40;99.90
50418;DHT22;36346;48.280;14.292;2022-07-06T02:02:39;19.30;99.90
50418;DHT22;36346;48.280;14.292;2022-07-06T02:05:11;19.30;99.90
50418;DHT22;36346;48.280;14.292;2022-07-06T02:07:40;19.50;99.90
50418;DHT22;36346;48.280;14.292;2022-07-06T02:10:10;19.40;99.90
50418;DHT22;36346;48.280;14.292;2022-07-06T02:12:38;19.30;99.90
50418;DHT22;36346;48.280;14.292;2022-07-06T02:15:07;19.30;99.90
50418;DHT22;36346;48.280;14.292;2022-07-06T02:17:35;19.30;99.90
50418;DHT22;36346;48.280;14.292;2022-07-06T02:20:05;19.20;99.90
50418;DHT22;36346;48.280;14.292;2022-07-06T02:22:33;19.20;99.90
50418;DHT22;36346;48.280;14.292;2022-07-06T02:25:02;19.40;99.90
50418;DHT22;36346;48.280;14.292;2022-07-06T02:27:31;19.30;99.90
50418;DHT22;36346;48.280;14.292;2022-07-06T02:30:03;19.20;99.90
50418;DHT22;36346;48.280;14.292;2022-07-06T02:32:32;19.20;99.90
50418;DHT22;36346;48.280;14.292;2022-07-06T02:35:01;19.30;99.90
50418;DHT22;36346;48.280;14.292;2022-07-06T02:37:29;19.10;99.90
50418;DHT22;36346;48.280;14.292;2022-07-06T02:39:57;19.10;99.90
50418;DHT22;36346;48.280;14.292;2022-07-06T02:42:26;19.10;99.90
50418;DHT22;36346;48.280;14.292;2022-07-06T02:44:55;19.10;99.90
50418;DHT22;36346;48.280;14.292;2022-07-06T02:47:23;19.20;99.90
50418;DHT22;36346;48.280;14.292;2022-07-06T02:49:52;19.20;99.90
50418;DHT22;36346;48.280;14.292;2022-07-06T02:52:22;19.20;99.90
50418;DHT22;36346;48.280;14.292;2022-07-06T02:54:50;19.20;99.90
50418;DHT22;36346;48.280;14.292;2022-07-06T02:57:19;19.10;99.90
50418;DHT22;36346;48.280;14.292;2022-07-06T02:59:47;19.10;99.90
50418;DHT22;36346;48.280;14.292;2022-07-06T03:02:18;19.20;99.90
50418;DHT22;36346;48.280;14.292;2022-07-06T03:04:47;19.00;99.90
50418;DHT22;36346;48.280;14.292;2022-07-06T03:07:16;18.90;99.90
50418;DHT22;36346;48.280;14.292;2022-07-06T03:09:45;19.00;99.90
50418;DHT22;36346;48.280;14.292;2022-07-06T03:12:14;18.80;99.90
50418;DHT22;36346;48.280;14.292;2022-07-06T03:14:44;18.80;99.90
50418;DHT22;36346;48.280;14.292;2022-07-06T03:17:12;18.90;99.90
50418;DHT22;36346;48.280;14.292;2022-07-06T03:19:42;18.90;99.90
50418;DHT22;36346;48.280;14.292;2022-07-06T03:22:10;18.80;99.90
50418;DHT22;36346;48.280;14.292;2022-07-06T03:24:38;18.90;99.90
50418;DHT22;36346;48.280;14.292;2022-07-06T03:27:08;18.80;99.90
50418;DHT22;36346;48.280;14.292;2022-07-06T03:29:36;18.80;99.90
50418;DHT22;36346;48.280;14.292;2022-07-06T03:32:06;18.70;99.90
50418;DHT22;36346;48.280;14.292;2022-07-06T03:34:34;18.80;99.90
50418;DHT22;36346;48.280;14.292;2022-07-06T03:37:03;18.90;99.90
50418;DHT22;36346;48.280;14.292;2022-07-06T03:39:32;18.90;99.90
50418;DHT22;36346;48.280;14.292;2022-07-06T03:42:02;18.90;99.90
50418;DHT22;36346;48.280;14.292;2022-07-06T03:44:32;18.80;99.90
50418;DHT22;36346;48.280;14.292;2022-07-06T03:47:01;18.90;99.90
50418;DHT22;36346;48.280;14.292;2022-07-06T03:49:29;19.00;99.90
50418;DHT22;36346;48.280;14.292;2022-07-06T03:52:00;19.10;99.90
50418;DHT22;36346;48.280;14.292;2022-07-06T03:54:32;19.10;99.90
50418;DHT22;36346;48.280;14.292;2022-07-06T03:57:00;19.00;99.90
50418;DHT22;36346;48.280;14.292;2022-07-06T03:59:28;18.90;99.90
50418;DHT22;36346;48.280;14.292;2022-07-06T04:01:56;19.00;99.90
50418;DHT22;36346;48.280;14.292;2022-07-06T04:04:24;19.10;99.90
50418;DHT22;36346;48.280;14.292;2022-07-06T04:06:53;19.00;99.90
50418;DHT22;36346;48.280;14.292;2022-07-06T04:09:22;19.00;99.90
50418;DHT22;36346;48.280;14.292;2022-07-06T04:11:50;19.00;99.90
50418;DHT22;36346;48.280;14.292;2022-07-06T04:14:18;19.00;99.90
50418;DHT22;36346;48.280;14.292;2022-07-06T04:16:47;19.00;99.90
50418;DHT22;36346;48.280;14.292;2022-07-06T04:19:16;19.10;99.90
50418;DHT22;36346;48.280;14.292;2022-07-06T04:21:44;19.20;99.90
50418;DHT22;36346;48.280;14.292;2022-07-06T04:24:13;19.10;99.90
50418;DHT22;36346;48.280;14.292;2022-07-06T04:26:41;19.10;99.90
50418;DHT22;36346;48.280;14.292;2022-07-06T04:29:10;19.00;99.90
50418;DHT22;36346;48.280;14.292;2022-07-06T04:31:39;19.10;99.90
50418;DHT22;36346;48.280;14.292;2022-07-06T04:34:07;18.40;99.90
50418;DHT22;36346;48.280;14.292;2022-07-06T04:36:35;19.20;99.90
50418;DHT22;36346;48.280;14.292;2022-07-06T04:39:03;19.20;99.90
50418;DHT22;36346;48.280;14.292;2022-07-06T04:41:32;19.20;99.90
50418;DHT22;36346;48.280;14.292;2022-07-06T04:44:00;19.20;99.90
50418;DHT22;36346;48.280;14.292;2022-07-06T04:46:28;19.10;99.90
50418;DHT22;36346;48.280;14.292;2022-07-06T04:48:58;19.20;99.90
50418;DHT22;36346;48.280;14.292;2022-07-06T04:51:29;19.20;99.90
50418;DHT22;36346;48.280;14.292;2022-07-06T04:53:59;19.30;99.90
50418;DHT22;36346;48.280;14.292;2022-07-06T04:56:27;19.30;99.90
50418;DHT22;36346;48.280;14.292;2022-07-06T04:58:56;19.40;99.90
50418;DHT22;36346;48.280;14.292;2022-07-06T05:01:25;19.40;99.90
50418;DHT22;36346;48.280;14.292;2022-07-06T05:03:53;19.40;99.90
50418;DHT22;36346;48.280;14.292;2022-07-06T05:06:23;19.40;99.90
50418;DHT22;36346;48.280;14.292;2022-07-06T05:08:52;19.40;99.90
50418;DHT22;36346;48.280;14.292;2022-07-06T05:11:21;19.40;99.90
50418;DHT22;36346;48.280;14.292;2022-07-06T05:13:50;19.40;99.90
50418;DHT22;36346;48.280;14.292;2022-07-06T05:16:18;19.40;99.90
50418;DHT22;36346;48.280;14.292;2022-07-06T05:18:47;19.50;99.90
50418;DHT22;36346;48.280;14.292;2022-07-06T05:21:16;19.50;99.90
50418;DHT22;36346;48.280;14.292;2022-07-06T05:23:44;19.60;99.90
50418;DHT22;36346;48.280;14.292;2022-07-06T05:26:13;19.60;99.90
50418;DHT22;36346;48.280;14.292;2022-07-06T05:28:42;19.60;99.90
50418;DHT22;36346;48.280;14.292;2022-07-06T05:31:14;19.50;99.90
50418;DHT22;36346;48.280;14.292;2022-07-06T05:33:42;19.50;99.90
50418;DHT22;36346;48.280;14.292;2022-07-06T05:36:11;19.40;99.90
50418;DHT22;36346;48.280;14.292;2022-07-06T05:38:39;19.20;99.90
50418;DHT22;36346;48.280;14.292;2022-07-06T05:41:08;19.30;99.90
50418;DHT22;36346;48.280;14.292;2022-07-06T05:43:36;19.30;99.90
50418;DHT22;36346;48.280;14.292;2022-07-06T05:46:05;19.40;99.90
50418;DHT22;36346;48.280;14.292;2022-07-06T05:48:35;19.60;99.90
50418;DHT22;36346;48.280;14.292;2022-07-06T05:51:22;19.60;99.90
50418;DHT22;36346;48.280;14.292;2022-07-06T05:53:51;19.70;99.90
50418;DHT22;36346;48.280;14.292;2022-07-06T05:56:20;19.60;99.90
50418;DHT22;36346;48.280;14.292;2022-07-06T05:58:49;19.70;99.90
50418;DHT22;36346;48.280;14.292;2022-07-06T06:01:17;19.70;99.90
50418;DHT22;36346;48.280;14.292;2022-07-06T06:03:54;19.80;99.90
50418;DHT22;36346;48.280;14.292;2022-07-06T06:06:22;19.80;99.90
50418;DHT22;36346;48.280;14.292;2022-07-06T06:08:50;19.80;99.90
50418;DHT22;36346;48.280;14.292;2022-07-06T06:11:19;19.70;99.90
50418;DHT22;36346;48.280;14.292;2022-07-06T06:13:47;19.70;99.90
50418;DHT22;36346;48.280;14.292;2022-07-06T06:16:16;19.70;99.90
50418;DHT22;36346;48.280;14.292;2022-07-06T06:18:44;19.80;99.90
50418;DHT22;36346;48.280;14.292;2022-07-06T06:21:12;19.80;99.90
50418;DHT22;36346;48.280;14.292;2022-07-06T06:23:40;19.90;99.90
50418;DHT22;36346;48.280;14.292;2022-07-06T06:26:08;19.90;99.90
50418;DHT22;36346;48.280;14.292;2022-07-06T06:28:39;19.90;99.90
50418;DHT22;36346;48.280;14.292;2022-07-06T06:31:09;20.00;99.90
50418;DHT22;36346;48.280;14.292;2022-07-06T06:33:37;20.10;99.90
50418;DHT22;36346;48.280;14.292;2022-07-06T06:36:05;20.00;99.90
50418;DHT22;36346;48.280;14.292;2022-07-06T06:38:34;20.00;99.90
50418;DHT22;36346;48.280;14.292;2022-07-06T06:41:02;20.00;99.90
50418;DHT22;36346;48.280;14.292;2022-07-06T06:43:31;20.00;99.90
50418;DHT22;36346;48.280;14.292;2022-07-06T06:46:08;19.90;99.90
50418;DHT22;36346;48.280;14.292;2022-07-06T06:48:36;20.00;99.90
50418;DHT22;36346;48.280;14.292;2022-07-06T06:51:04;20.00;99.90
50418;DHT22;36346;48.280;14.292;2022-07-06T06:53:35;20.10;99.40
50418;DHT22;36346;48.280;14.292;2022-07-06T06:56:07;20.10;99.10
50418;DHT22;36346;48.280;14.292;2022-07-06T06:58:36;20.10;99.20
50418;DHT22;36346;48.280;14.292;2022-07-06T07:01:24;20.10;99.60
50418;DHT22;36346;48.280;14.292;2022-07-06T07:03:53;20.20;99.90
50418;DHT22;36346;48.280;14.292;2022-07-06T07:06:22;20.20;99.90
50418;DHT22;36346;48.280;14.292;2022-07-06T07:08:51;20.20;99.90
50418;DHT22;36346;48.280;14.292;2022-07-06T07:11:19;20.10;99.90
50418;DHT22;36346;48.280;14.292;2022-07-06T07:13:47;20.30;99.90
50418;DHT22;36346;48.280;14.292;2022-07-06T07:16:15;20.20;99.90
50418;DHT22;36346;48.280;14.292;2022-07-06T07:18:43;20.30;99.90
50418;DHT22;36346;48.280;14.292;2022-07-06T07:21:11;20.40;99.90
50418;DHT22;36346;48.280;14.292;2022-07-06T07:23:40;20.40;99.90
50418;DHT22;36346;48.280;14.292;2022-07-06T07:26:08;20.40;99.80
50418;DHT22;36346;48.280;14.292;2022-07-06T07:28:36;20.40;99.80
50418;DHT22;36346;48.280;14.292;2022-07-06T07:31:05;20.60;99.50
50418;DHT22;36346;48.280;14.292;2022-07-06T07:33:34;20.60;99.50
50418;DHT22;36346;48.280;14.292;2022-07-06T07:36:02;20.60;98.70
50418;DHT22;36346;48.280;14.292;2022-07-06T07:38:31;20.70;98.70
50418;DHT22;36346;48.280;14.292;2022-07-06T07:40:59;20.70;98.70
50418;DHT22;36346;48.280;14.292;2022-07-06T07:43:27;20.80;98.30
50418;DHT22;36346;48.280;14.292;2022-07-06T07:45:55;20.80;96.70
50418;DHT22;36346;48.280;14.292;2022-07-06T07:48:23;20.90;95.80
50418;DHT22;36346;48.280;14.292;2022-07-06T07:50:52;20.90;95.60
50418;DHT22;36346;48.280;14.292;2022-07-06T07:53:20;21.00;95.30
50418;DHT22;36346;48.280;14.292;2022-07-06T07:55:48;21.00;94.60
50418;DHT22;36346;48.280;14.292;2022-07-06T07:58:16;21.10;94.20
50418;DHT22;36346;48.280;14.292;2022-07-06T08:00:45;21.10;94.00
50418;DHT22;36346;48.280;14.292;2022-07-06T08:03:13;21.10;92.90
50418;DHT22;36346;48.280;14.292;2022-07-06T08:05:42;21.20;93.10
50418;DHT22;36346;48.280;14.292;2022-07-06T08:08:10;21.20;92.70
50418;DHT22;36346;48.280;14.292;2022-07-06T08:10:38;21.20;91.90
50418;DHT22;36346;48.280;14.292;2022-07-06T08:13:26;21.30;91.80
50418;DHT22;36346;48.280;14.292;2022-07-06T08:15:54;21.30;90.40
50418;DHT22;36346;48.280;14.292;2022-07-06T08:18:22;21.40;90.20
50418;DHT22;36346;48.280;14.292;2022-07-06T08:20:51;21.40;90.20
50418;DHT22;36346;48.280;14.292;2022-07-06T08:23:40;21.30;90.30
50418;DHT22;36346;48.280;14.292;2022-07-06T08:26:09;21.40;89.60
50418;DHT22;36346;48.280;14.292;2022-07-06T08:28:44;21.40;88.70
50418;DHT22;36346;48.280;14.292;2022-07-06T08:31:12;21.50;90.20
50418;DHT22;36346;48.280;14.292;2022-07-06T08:34:01;21.60;89.80
50418;DHT22;36346;48.280;14.292;2022-07-06T08:36:30;21.60;89.10
50418;DHT22;36346;48.280;14.292;2022-07-06T08:38:58;21.60;88.30
50418;DHT22;36346;48.280;14.292;2022-07-06T08:41:29;21.70;88.50
50418;DHT22;36346;48.280;14.292;2022-07-06T08:43:57;21.70;88.20
50418;DHT22;36346;48.280;14.292;2022-07-06T08:46:27;21.80;87.90
50418;DHT22;36346;48.280;14.292;2022-07-06T08:48:57;21.80;87.50
50418;DHT22;36346;48.280;14.292;2022-07-06T08:51:27;21.80;87.10
50418;DHT22;36346;48.280;14.292;2022-07-06T08:53:58;21.80;87.30
50418;DHT22;36346;48.280;14.292;2022-07-06T08:56:28;21.90;85.60
50418;DHT22;36346;48.280;14.292;2022-07-06T08:58:56;21.80;85.90
50418;DHT22;36346;48.280;14.292;2022-07-06T09:01:25;21.90;87.60
50418;DHT22;36346;48.280;14.292;2022-07-06T09:03:55;22.00;85.10
50418;DHT22;36346;48.280;14.292;2022-07-06T09:06:25;22.10;87.40
50418;DHT22;36346;48.280;14.292;2022-07-06T09:08:55;22.20;85.80
50418;DHT22;36346;48.280;14.292;2022-07-06T09:11:24;22.20;86.30
50418;DHT22;36346;48.280;14.292;2022-07-06T09:13:57;22.30;84.40
50418;DHT22;36346;48.280;14.292;2022-07-06T09:16:27;22.30;84.60
50418;DHT22;36346;48.280;14.292;2022-07-06T09:19:07;22.30;84.00
50418;DHT22;36346;48.280;14.292;2022-07-06T09:21:35;22.30;83.70
50418;DHT22;36346;48.280;14.292;2022-07-06T09:24:10;22.40;84.30
50418;DHT22;36346;48.280;14.292;2022-07-06T09:26:39;22.50;83.10
50418;DHT22;36346;48.280;14.292;2022-07-06T09:29:10;22.50;83.80
50418;DHT22;36346;48.280;14.292;2022-07-06T09:31:39;22.60;82.80
50418;DHT22;36346;48.280;14.292;2022-07-06T09:34:08;22.60;82.70
50418;DHT22;36346;48.280;14.292;2022-07-06T09:36:45;22.60;81.90
50418;DHT22;36346;48.280;14.292;2022-07-06T09:39:28;22.60;81.50
50418;DHT22;36346;48.280;14.292;2022-07-06T09:41:58;22.60;80.00
50418;DHT22;36346;48.280;14.292;2022-07-06T09:44:32;22.70;81.70
50418;DHT22;36346;48.280;14.292;2022-07-06T09:47:05;22.70;79.90
50418;DHT22;36346;48.280;14.292;2022-07-06T09:49:33;22.80;80.80
50418;DHT22;36346;48.280;14.292;2022-07-06T09:52:05;22.80;81.70
50418;DHT22;36346;48.280;14.292;2022-07-06T09:54:34;22.80;80.50
50418;DHT22;36346;48.280;14.292;2022-07-06T09:57:04;22.80;78.10
50418;DHT22;36346;48.280;14.292;2022-07-06T09:59:36;22.80;81.20
50418;DHT22;36346;48.280;14.292;2022-07-06T10:02:07;22.90;81.30
50418;DHT22;36346;48.280;14.292;2022-07-06T10:04:36;23.00;82.50
50418;DHT22;36346;48.280;14.292;2022-07-06T10:07:06;23.00;78.30
50418;DHT22;36346;48.280;14.292;2022-07-06T10:09:37;22.90;77.80
50418;DHT22;36346;48.280;14.292;2022-07-06T10:12:10;23.10;79.40
50418;DHT22;36346;48.280;14.292;2022-07-06T10:14:40;23.20;78.20
50418;DHT22;36346;48.280;14.292;2022-07-06T10:17:17;23.20;77.70
50418;DHT22;36346;48.280;14.292;2022-07-06T10:19:47;23.20;78.80
50418;DHT22;36346;48.280;14.292;2022-07-06T10:22:15;23.30;78.30
50418;DHT22;36346;48.280;14.292;2022-07-06T10:24:47;23.30;77.30
50418;DHT22;36346;48.280;14.292;2022-07-06T10:27:17;23.30;78.30
50418;DHT22;36346;48.280;14.292;2022-07-06T10:29:45;23.40;78.80
50418;DHT22;36346;48.280;14.292;2022-07-06T10:32:18;23.40;77.00
50418;DHT22;36346;48.280;14.292;2022-07-06T10:34:47;23.50;79.30
50418;DHT22;36346;48.280;14.292;2022-07-06T10:37:27;23.40;77.50
50418;DHT22;36346;48.280;14.292;2022-07-06T10:39:55;23.60;79.60
50418;DHT22;36346;48.280;14.292;2022-07-06T10:42:42;23.60;78.20
50418;DHT22;36346;48.280;14.292;2022-07-06T10:45:13;23.70;78.70
50418;DHT22;36346;48.280;14.292;2022-07-06T10:47:42;23.60;77.20
50418;DHT22;36346;48.280;14.292;2022-07-06T10:50:11;23.70;76.20
50418;DHT22;36346;48.280;14.292;2022-07-06T10:52:59;23.70;75.80
50418;DHT22;36346;48.280;14.292;2022-07-06T10:55:29;23.60;75.30
50418;DHT22;36346;48.280;14.292;2022-07-06T10:57:58;23.70;75.40
50418;DHT22;36346;48.280;14.292;2022-07-06T11:00:50;23.80;75.10
50418;DHT22;36346;48.280;14.292;2022-07-06T11:16:22;24.10;68.60
50418;DHT22;36346;48.280;14.292;2022-07-06T11:19:04;24.10;69.10
50418;DHT22;36346;48.280;14.292;2022-07-06T11:21:45;24.20;69.90
50418;DHT22;36346;48.280;14.292;2022-07-06T11:24:28;24.30;69.20
50418;DHT22;36346;48.280;14.292;2022-07-06T11:26:58;24.20;69.20
50418;DHT22;36346;48.280;14.292;2022-07-06T11:29:28;24.10;69.90
50418;DHT22;36346;48.280;14.292;2022-07-06T11:32:00;24.20;70.60
50418;DHT22;36346;48.280;14.292;2022-07-06T11:34:33;24.20;68.90
50418;DHT22;36346;48.280;14.292;2022-07-06T11:37:08;24.10;67.70
50418;DHT22;36346;48.280;14.292;2022-07-06T11:39:41;24.20;68.50
50418;DHT22;36346;48.280;14.292;2022-07-06T11:42:13;24.30;68.30
50418;DHT22;36346;48.280;14.292;2022-07-06T11:44:42;24.40;67.90
50418;DHT22;36346;48.280;14.292;2022-07-06T11:47:11;24.40;67.30
50418;DHT22;36346;48.280;14.292;2022-07-06T11:49:41;24.50;66.60
50418;DHT22;36346;48.280;14.292;2022-07-06T11:52:11;24.50;67.70
50418;DHT22;36346;48.280;14.292;2022-07-06T11:54:41;24.70;68.00
50418;DHT22;36346;48.280;14.292;2022-07-06T11:57:11;24.70;66.30
50418;DHT22;36346;48.280;14.292;2022-07-06T11:59:41;24.70;66.00
50418;DHT22;36346;48.280;14.292;2022-07-06T12:02:15;24.70;65.20
50418;DHT22;36346;48.280;14.292;2022-07-06T12:04:46;24.70;66.30
50418;DHT22;36346;48.280;14.292;2022-07-06T12:07:16;24.80;65.90
50418;DHT22;36346;48.280;14.292;2022-07-06T12:09:46;25.00;67.10
50418;DHT22;36346;48.280;14.292;2022-07-06T12:12:15;24.80;65.60
50418;DHT22;36346;48.280;14.292;2022-07-06T12:14:44;24.70;67.20
50418;DHT22;36346;48.280;14.292;2022-07-06T12:17:14;24.80;66.20
50418;DHT22;36346;48.280;14.292;2022-07-06T12:19:43;24.80;63.00
50418;DHT22;36346;48.280;14.292;2022-07-06T12:22:12;24.70;62.60
50418;DHT22;36346;48.280;14.292;2022-07-06T12:24:43;24.70;62.10
50418;DHT22;36346;48.280;14.292;2022-07-06T12:27:17;24.70;60.60
50418;DHT22;36346;48.280;14.292;2022-07-06T12:29:46;24.80;61.00
50418;DHT22;36346;48.280;14.292;2022-07-06T12:32:22;24.80;61.10
50418;DHT22;36346;48.280;14.292;2022-07-06T12:35:08;24.80;62.20
50418;DHT22;36346;48.280;14.292;2022-07-06T12:37:37;24.90;62.00
50418;DHT22;36346;48.280;14.292;2022-07-06T12:40:15;24.90;61.40
50418;DHT22;36346;48.280;14.292;2022-07-06T12:42:46;25.00;60.10
50418;DHT22;36346;48.280;14.292;2022-07-06T12:45:16;25.00;60.20
50418;DHT22;36346;48.280;14.292;2022-07-06T12:48:05;25.10;61.80
50418;DHT22;36346;48.280;14.292;2022-07-06T12:50:36;25.20;60.60
50418;DHT22;36346;48.280;14.292;2022-07-06T12:53:24;25.20;60.20
50418;DHT22;36346;48.280;14.292;2022-07-06T12:56:12;25.30;60.70
50418;DHT22;36346;48.280;14.292;2022-07-06T12:59:01;25.30;59.50
50418;DHT22;36346;48.280;14.292;2022-07-06T13:01:29;25.20;59.30
50418;DHT22;36346;48.280;14.292;2022-07-06T13:03:58;25.30;59.00
50418;DHT22;36346;48.280;14.292;2022-07-06T13:06:44;25.40;63.90
50418;DHT22;36346;48.280;14.292;2022-07-06T13:09:12;25.50;62.60
50418;DHT22;36346;48.280;14.292;2022-07-06T13:11:42;25.50;60.10
50418;DHT22;36346;48.280;14.292;2022-07-06T13:14:11;25.30;59.60
50418;DHT22;36346;48.280;14.292;2022-07-06T13:16:39;25.30;59.50
50418;DHT22;36346;48.280;14.292;2022-07-06T13:19:07;25.20;58.90
50418;DHT22;36346;48.280;14.292;2022-07-06T13:21:36;25.30;59.40
50418;DHT22;36346;48.280;14.292;2022-07-06T13:24:05;25.30;60.40
50418;DHT22;36346;48.280;14.292;2022-07-06T13:26:33;25.30;59.80
50418;DHT22;36346;48.280;14.292;2022-07-06T13:29:03;25.20;58.10
50418;DHT22;36346;48.280;14.292;2022-07-06T13:31:31;25.20;58.10
50418;DHT22;36346;48.280;14.292;2022-07-06T13:33:59;25.20;60.20
50418;DHT22;36346;48.280;14.292;2022-07-06T13:36:28;25.30;58.60
50418;DHT22;36346;48.280;14.292;2022-07-06T13:38:56;25.10;58.80
50418;DHT22;36346;48.280;14.292;2022-07-06T13:41:24;25.10;59.40
50418;DHT22;36346;48.280;14.292;2022-07-06T13:43:52;25.10;61.10
50418;DHT22;36346;48.280;14.292;2022-07-06T13:46:20;25.20;62.60
50418;DHT22;36346;48.280;14.292;2022-07-06T13:48:49;25.20;60.90
50418;DHT22;36346;48.280;14.292;2022-07-06T13:51:17;25.20;59.80
50418;DHT22;36346;48.280;14.292;2022-07-06T13:53:46;25.20;61.30
50418;DHT22;36346;48.280;14.292;2022-07-06T13:56:15;25.30;60.50
50418;DHT22;36346;48.280;14.292;2022-07-06T13:58:43;25.30;61.50
50418;DHT22;36346;48.280;14.292;2022-07-06T14:01:12;25.50;60.10
50418;DHT22;36346;48.280;14.292;2022-07-06T14:03:49;26.40;62.10
50418;DHT22;36346;48.280;14.292;2022-07-06T14:06:18;26.10;60.00
50418;DHT22;36346;48.280;14.292;2022-07-06T14:08:47;25.80;59.50
50418;DHT22;36346;48.280;14.292;2022-07-06T14:11:15;25.40;60.00
50418;DHT22;36346;48.280;14.292;2022-07-06T14:13:44;25.40;62.10
50418;DHT22;36346;48.280;14.292;2022-07-06T14:16:12;25.40;66.70
50418;DHT22;36346;48.280;14.292;2022-07-06T14:18:42;25.60;63.50
50418;DHT22;36346;48.280;14.292;2022-07-06T14:21:11;25.40;65.90
50418;DHT22;36346;48.280;14.292;2022-07-06T14:23:39;25.40;61.60
50418;DHT22;36346;48.280;14.292;2022-07-06T14:26:07;25.50;59.30
50418;DHT22;36346;48.280;14.292;2022-07-06T14:28:35;25.50;58.30
50418;DHT22;36346;48.280;14.292;2022-07-06T14:31:04;25.50;59.40
50418;DHT22;36346;48.280;14.292;2022-07-06T14:33:32;25.70;61.70
50418;DHT22;36346;48.280;14.292;2022-07-06T14:36:00;25.80;60.70
50418;DHT22;36346;48.280;14.292;2022-07-06T14:38:28;25.90;63.30
50418;DHT22;36346;48.280;14.292;2022-07-06T14:40:56;25.80;61.00
50418;DHT22;36346;48.280;14.292;2022-07-06T14:43:24;25.80;61.30
50418;DHT22;36346;48.280;14.292;2022-07-06T14:45:53;26.00;61.60
50418;DHT22;36346;48.280;14.292;2022-07-06T14:48:21;26.20;60.90
50418;DHT22;36346;48.280;14.292;2022-07-06T14:50:50;26.30;60.40
50418;DHT22;36346;48.280;14.292;2022-07-06T14:53:18;26.50;56.60
50418;DHT22;36346;48.280;14.292;2022-07-06T14:55:47;26.60;55.80
50418;DHT22;36346;48.280;14.292;2022-07-06T14:58:15;26.80;58.30
50418;DHT22;36346;48.280;14.292;2022-07-06T15:00:46;26.80;56.40
50418;DHT22;36346;48.280;14.292;2022-07-06T15:03:17;26.90;54.10
50418;DHT22;36346;48.280;14.292;2022-07-06T15:05:45;27.00;56.30
50418;DHT22;36346;48.280;14.292;2022-07-06T15:08:15;26.70;54.60
50418;DHT22;36346;48.280;14.292;2022-07-06T15:10:44;26.50;55.80
50418;DHT22;36346;48.280;14.292;2022-07-06T15:13:12;26.40;56.30
50418;DHT22;36346;48.280;14.292;2022-07-06T15:15:41;26.30;57.40
50418;DHT22;36346;48.280;14.292;2022-07-06T15:18:26;26.20;57.50
50418;DHT22;36346;48.280;14.292;2022-07-06T15:20:55;26.30;58.20
50418;DHT22;36346;48.280;14.292;2022-07-06T15:23:23;26.30;55.20
50418;DHT22;36346;48.280;14.292;2022-07-06T15:25:52;26.20;54.20
50418;DHT22;36346;48.280;14.292;2022-07-06T15:28:24;26.20;56.40
50418;DHT22;36346;48.280;14.292;2022-07-06T15:30:55;26.10;54.70
50418;DHT22;36346;48.280;14.292;2022-07-06T15:33:23;26.10;55.00
50418;DHT22;36346;48.280;14.292;2022-07-06T15:35:52;26.10;56.30
50418;DHT22;36346;48.280;14.292;2022-07-06T15:38:20;26.10;55.70
50418;DHT22;36346;48.280;14.292;2022-07-06T15:40:49;26.10;56.20
50418;DHT22;36346;48.280;14.292;2022-07-06T15:43:23;26.10;59.20
50418;DHT22;36346;48.280;14.292;2022-07-06T15:45:57;26.00;55.90